sensor_id;sensor_type;location;lat;lon;timestamp;P1;durP1;ratioP1;P2;durP2;ratioP2
47155;SDS011;32908;52.344;16.858;2023-09-07T17:39:19;9.20;;;4.40;;
47155;SDS011;32908;52.344;16.858;2023-09-07T17:41:50;7.60;;;4.70;;
47155;SDS011;32908;52.344;16.858;2023-09-07T17:44:21;8.50;;;4.20;;
47155;SDS011;32908;52.344;16.858;2023-09-07T17:46:52;6.90;;;4.40;;
47155;SDS011;32908;52.344;16.858;2023-09-07T17:49:23;8.10;;;4.90;;
47155;SDS011;32908;52.344;16.858;2023-09-07T17:51:53;9.90;;;5.30;;
47155;SDS011;32908;52.344;16.858;2023-09-07T17:54:24;9.60;;;5.00;;
47155;SDS011;32908;52.344;16.858;2023-09-07T17:56:54;8.70;;;5.50;;
47155;SDS011;32908;52.344;16.858;2023-09-07T17:59:25;9.70;;;4.60;;
47155;SDS011;32908;52.344;16.858;2023-09-07T18:01:55;14.80;;;5.20;;
47155;SDS011;32908;52.344;16.858;2023-09-07T18:04:26;9.40;;;5.00;;
47155;SDS011;32908;52.344;16.858;2023-09-07T18:06:57;5.80;;;4.80;;
47155;SDS011;32908;52.344;16.858;2023-09-07T18:09:27;7.20;;;4.70;;
47155;SDS011;32908;52.344;16.858;2023-09-07T18:11:58;12.80;;;5.10;;
47155;SDS011;32908;52.344;16.858;2023-09-07T18:14:29;10.70;;;5.80;;
47155;SDS011;32908;52.344;16.858;2023-09-07T18:16:59;11.70;;;7.50;;
47155;SDS011;32908;52.344;16.858;2023-09-07T18:19:30;12.10;;;6.20;;
47155;SDS011;32908;52.344;16.858;2023-09-07T18:22:00;9.50;;;5.50;;
47155;SDS011;32908;52.344;16.858;2023-09-07T18:24:32;11.70;;;5.40;;
47155;SDS011;32908;52.344;16.858;2023-09-07T18:27:03;18.90;;;5.90;;
47155;SDS011;32908;52.344;16.858;2023-09-07T18:29:34;19.90;;;6.30;;
47155;SDS011;32908;52.344;16.858;2023-09-07T18:32:05;17.50;;;6.20;;
47155;SDS011;32908;52.344;16.858;2023-09-07T18:34:36;16.00;;;5.20;;
47155;SDS011;32908;52.344;16.858;2023-09-07T18:37:06;17.50;;;6.30;;
47155;SDS011;32908;52.344;16.858;2023-09-07T18:39:37;20.30;;;5.50;;
47155;SDS011;32908;52.344;16.858;2023-09-07T18:42:08;22.60;;;6.00;;
47155;SDS011;32908;52.344;16.858;2023-09-07T18:44:38;22.10;;;6.10;;
47155;SDS011;32908;52.344;16.858;2023-09-07T18:47:09;30.80;;;7.70;;
47155;SDS011;32908;52.344;16.858;2023-09-07T18:49:40;16.60;;;6.10;;
47155;SDS011;32908;52.344;16.858;2023-09-07T18:52:11;17.40;;;6.60;;
47155;SDS011;32908;52.344;16.858;2023-09-07T18:54:42;22.30;;;6.90;;
47155;SDS011;32908;52.344;16.858;2023-09-07T18:57:12;20.30;;;6.70;;
47155;SDS011;32908;52.344;16.858;2023-09-07T18:59:43;16.50;;;6.50;;
47155;SDS011;32908;52.344;16.858;2023-09-07T19:02:13;15.20;;;8.30;;
47155;SDS011;32908;52.344;16.858;2023-09-07T19:04:44;18.70;;;10.00;;
47155;SDS011;32908;52.344;16.858;2023-09-07T19:07:17;21.60;;;12.60;;
47155;SDS011;32908;52.344;16.858;2023-09-07T19:09:49;21.90;;;12.00;;
47155;SDS011;32908;52.344;16.858;2023-09-07T19:12:20;22.40;;;11.70;;
47155;SDS011;32908;52.344;16.858;2023-09-07T19:14:50;22.70;;;11.80;;
47155;SDS011;32908;52.344;16.858;2023-09-07T19:17:21;26.30;;;15.40;;
47155;SDS011;32908;52.344;16.858;2023-09-07T19:19:52;21.80;;;13.40;;
47155;SDS011;32908;52.344;16.858;2023-09-07T19:22:22;21.10;;;11.60;;
47155;SDS011;32908;52.344;16.858;2023-09-07T19:24:53;18.40;;;11.00;;
47155;SDS011;32908;52.344;16.858;2023-09-07T19:27:23;18.40;;;10.50;;
47155;SDS011;32908;52.344;16.858;2023-09-07T19:29:54;16.30;;;10.30;;
47155;SDS011;32908;52.344;16.858;2023-09-07T19:32:27;17.10;;;10.10;;
47155;SDS011;32908;52.344;16.858;2023-09-07T19:34:57;18.40;;;8.60;;
47155;SDS011;32908;52.344;16.858;2023-09-07T19:37:31;14.40;;;8.10;;
47155;SDS011;32908;52.344;16.858;2023-09-07T19:40:01;15.20;;;7.20;;
47155;SDS011;32908;52.344;16.858;2023-09-07T19:42:33;14.70;;;7.90;;
47155;SDS011;32908;52.344;16.858;2023-09-07T19:45:04;15.40;;;7.50;;
47155;SDS011;32908;52.344;16.858;2023-09-07T19:47:35;18.40;;;8.00;;
47155;SDS011;32908;52.344;16.858;2023-09-07T19:50:07;16.50;;;7.90;;
47155;SDS011;32908;52.344;16.858;2023-09-07T19:52:38;12.40;;;8.00;;
47155;SDS011;32908;52.344;16.858;2023-09-07T19:55:13;14.10;;;8.20;;
47155;SDS011;32908;52.344;16.858;2023-09-07T19:57:44;13.90;;;7.70;;
47155;SDS011;32908;52.344;16.858;2023-09-07T20:00:14;16.00;;;8.00;;
47155;SDS011;32908;52.344;16.858;2023-09-07T20:02:45;12.90;;;7.90;;
47155;SDS011;32908;52.344;16.858;2023-09-07T20:05:16;12.50;;;8.20;;
47155;SDS011;32908;52.344;16.858;2023-09-07T20:07:47;16.50;;;7.70;;
47155;SDS011;32908;52.344;16.858;2023-09-07T20:10:18;19.70;;;7.70;;
47155;SDS011;32908;52.344;16.858;2023-09-07T20:12:51;16.20;;;7.60;;
47155;SDS011;32908;52.344;16.858;2023-09-07T20:15:21;17.70;;;8.40;;
47155;SDS011;32908;52.344;16.858;2023-09-07T20:17:52;13.90;;;7.90;;
47155;SDS011;32908;52.344;16.858;2023-09-07T20:20:23;16.20;;;8.20;;
47155;SDS011;32908;52.344;16.858;2023-09-07T20:22:53;17.20;;;8.30;;
47155;SDS011;32908;52.344;16.858;2023-09-07T20:25:24;15.60;;;8.00;;
47155;SDS011;32908;52.344;16.858;2023-09-07T20:27:54;17.40;;;8.00;;
47155;SDS011;32908;52.344;16.858;2023-09-07T20:30:25;11.70;;;8.00;;
47155;SDS011;32908;52.344;16.858;2023-09-07T20:32:55;14.40;;;8.00;;
47155;SDS011;32908;52.344;16.858;2023-09-07T20:35:26;12.50;;;7.00;;
47155;SDS011;32908;52.344;16.858;2023-09-07T20:37:58;13.70;;;7.60;;
47155;SDS011;32908;52.344;16.858;2023-09-07T20:40:31;15.40;;;7.50;;
47155;SDS011;32908;52.344;16.858;2023-09-07T20:43:02;16.80;;;8.00;;
47155;SDS011;32908;52.344;16.858;2023-09-07T20:45:38;12.60;;;7.90;;
47155;SDS011;32908;52.344;16.858;2023-09-07T20:48:09;11.50;;;7.30;;
47155;SDS011;32908;52.344;16.858;2023-09-07T20:50:40;12.60;;;7.60;;
47155;SDS011;32908;52.344;16.858;2023-09-07T20:53:11;14.20;;;8.00;;
47155;SDS011;32908;52.344;16.858;2023-09-07T20:55:42;12.00;;;8.10;;
47155;SDS011;32908;52.344;16.858;2023-09-07T20:58:13;15.20;;;8.30;;
47155;SDS011;32908;52.344;16.858;2023-09-07T21:00:43;18.40;;;7.60;;
47155;SDS011;32908;52.344;16.858;2023-09-07T21:03:14;13.20;;;7.50;;
47155;SDS011;32908;52.344;16.858;2023-09-07T21:05:45;16.30;;;7.60;;
47155;SDS011;32908;52.344;16.858;2023-09-07T21:08:15;22.50;;;8.90;;
47155;SDS011;32908;52.344;16.858;2023-09-07T21:10:46;15.70;;;8.30;;
47155;SDS011;32908;52.344;16.858;2023-09-07T21:13:17;18.80;;;10.30;;
47155;SDS011;32908;52.344;16.858;2023-09-07T21:15:47;17.00;;;9.30;;
47155;SDS011;32908;52.344;16.858;2023-09-07T21:18:18;16.80;;;8.90;;
47155;SDS011;32908;52.344;16.858;2023-09-07T21:20:48;19.80;;;10.10;;
47155;SDS011;32908;52.344;16.858;2023-09-07T21:23:19;24.00;;;11.30;;
47155;SDS011;32908;52.344;16.858;2023-09-07T21:25:49;19.60;;;10.80;;
47155;SDS011;32908;52.344;16.858;2023-09-07T21:28:20;22.30;;;11.00;;
47155;SDS011;32908;52.344;16.858;2023-09-07T21:30:51;24.40;;;10.40;;
47155;SDS011;32908;52.344;16.858;2023-09-07T21:33:22;21.90;;;10.20;;
47155;SDS011;32908;52.344;16.858;2023-09-07T21:35:53;22.80;;;10.50;;
47155;SDS011;32908;52.344;16.858;2023-09-07T21:38:24;18.70;;;10.30;;
47155;SDS011;32908;52.344;16.858;2023-09-07T21:40:55;26.20;;;11.50;;
47155;SDS011;32908;52.344;16.858;2023-09-07T21:43:26;25.10;;;11.00;;
47155;SDS011;32908;52.344;16.858;2023-09-07T21:45:57;21.30;;;11.00;;
47155;SDS011;32908;52.344;16.858;2023-09-07T21:48:28;20.00;;;11.10;;
47155;SDS011;32908;52.344;16.858;2023-09-07T21:50:59;25.50;;;11.80;;
47155;SDS011;32908;52.344;16.858;2023-09-07T21:53:30;19.30;;;11.60;;
47155;SDS011;32908;52.344;16.858;2023-09-07T21:56:01;18.10;;;11.80;;
47155;SDS011;32908;52.344;16.858;2023-09-07T21:58:32;17.80;;;10.70;;
47155;SDS011;32908;52.344;16.858;2023-09-07T22:01:04;16.10;;;11.20;;
47155;SDS011;32908;52.344;16.858;2023-09-07T22:03:35;23.50;;;11.10;;
47155;SDS011;32908;52.344;16.858;2023-09-07T22:06:06;20.10;;;11.20;;
47155;SDS011;32908;52.344;16.858;2023-09-07T22:08:37;19.30;;;10.40;;
47155;SDS011;32908;52.344;16.858;2023-09-07T22:11:08;23.90;;;10.90;;
47155;SDS011;32908;52.344;16.858;2023-09-07T22:13:39;21.60;;;9.90;;
47155;SDS011;32908;52.344;16.858;2023-09-07T22:16:10;17.30;;;9.70;;
47155;SDS011;32908;52.344;16.858;2023-09-07T22:18:41;24.20;;;10.50;;
47155;SDS011;32908;52.344;16.858;2023-09-07T22:21:11;17.40;;;9.90;;
47155;SDS011;32908;52.344;16.858;2023-09-07T22:23:44;18.40;;;10.50;;
47155;SDS011;32908;52.344;16.858;2023-09-07T22:26:14;21.90;;;10.70;;
47155;SDS011;32908;52.344;16.858;2023-09-07T22:28:45;17.40;;;10.20;;
47155;SDS011;32908;52.344;16.858;2023-09-07T22:31:16;18.00;;;9.60;;
47155;SDS011;32908;52.344;16.858;2023-09-07T22:33:47;17.10;;;10.20;;
47155;SDS011;32908;52.344;16.858;2023-09-07T22:36:18;17.40;;;9.80;;
47155;SDS011;32908;52.344;16.858;2023-09-07T22:38:48;14.00;;;8.90;;
47155;SDS011;32908;52.344;16.858;2023-09-07T22:41:21;13.00;;;9.30;;
47155;SDS011;32908;52.344;16.858;2023-09-07T22:43:52;16.10;;;9.40;;
47155;SDS011;32908;52.344;16.858;2023-09-07T22:46:23;19.20;;;9.20;;
47155;SDS011;32908;52.344;16.858;2023-09-07T22:48:54;13.90;;;9.50;;
47155;SDS011;32908;52.344;16.858;2023-09-07T22:51:24;15.70;;;10.00;;
47155;SDS011;32908;52.344;16.858;2023-09-07T22:53:55;15.10;;;9.40;;
47155;SDS011;32908;52.344;16.858;2023-09-07T22:56:26;16.10;;;9.50;;
47155;SDS011;32908;52.344;16.858;2023-09-07T22:58:56;13.50;;;9.40;;
47155;SDS011;32908;52.344;16.858;2023-09-07T23:01:28;17.60;;;9.90;;
47155;SDS011;32908;52.344;16.858;2023-09-07T23:03:58;20.50;;;9.40;;
47155;SDS011;32908;52.344;16.858;2023-09-07T23:06:29;14.50;;;9.10;;
47155;SDS011;32908;52.344;16.858;2023-09-07T23:09:00;13.30;;;8.70;;
47155;SDS011;32908;52.344;16.858;2023-09-07T23:11:34;15.60;;;8.90;;
47155;SDS011;32908;52.344;16.858;2023-09-07T23:14:05;13.90;;;9.30;;
47155;SDS011;32908;52.344;16.858;2023-09-07T23:16:36;14.60;;;8.60;;
47155;SDS011;32908;52.344;16.858;2023-09-07T23:19:07;14.50;;;9.10;;
47155;SDS011;32908;52.344;16.858;2023-09-07T23:21:38;15.50;;;9.80;;
47155;SDS011;32908;52.344;16.858;2023-09-07T23:24:08;12.50;;;8.80;;
47155;SDS011;32908;52.344;16.858;2023-09-07T23:26:39;12.70;;;8.60;;
47155;SDS011;32908;52.344;16.858;2023-09-07T23:29:10;13.50;;;8.80;;
47155;SDS011;32908;52.344;16.858;2023-09-07T23:31:41;15.20;;;9.40;;
47155;SDS011;32908;52.344;16.858;2023-09-07T23:34:12;14.20;;;8.40;;
47155;SDS011;32908;52.344;16.858;2023-09-07T23:36:43;12.10;;;9.20;;
47155;SDS011;32908;52.344;16.858;2023-09-07T23:39:14;12.80;;;9.00;;
47155;SDS011;32908;52.344;16.858;2023-09-07T23:41:45;15.60;;;9.20;;
47155;SDS011;32908;52.344;16.858;2023-09-07T23:44:16;15.30;;;9.50;;
47155;SDS011;32908;52.344;16.858;2023-09-07T23:46:46;14.90;;;10.00;;
47155;SDS011;32908;52.344;16.858;2023-09-07T23:49:17;18.90;;;9.50;;
47155;SDS011;32908;52.344;16.858;2023-09-07T23:51:48;10.50;;;8.40;;
47155;SDS011;32908;52.344;16.858;2023-09-07T23:54:19;15.30;;;9.80;;
47155;SDS011;32908;52.344;16.858;2023-09-07T23:56:49;15.90;;;9.30;;
47155;SDS011;32908;52.344;16.858;2023-09-07T23:59:20;13.30;;;9.00;;
